Hidemasa Kawashima

Olheiro - Albirex Niigata
6 Ago 2028
Domingo
Processo

Personalidade

Adaptabilidade (3) Ambição (9) Controvérsia (11) Lealdade (18) Pressão (16) Profissionalismo (10) Espírito Esportivo (8) Temperamento (18)

Perfil

Estilo de Treinamento Democrático
Licença Continental C
Determinação 9
Gestão de Pessoas 5
Motivação 6
Disciplina 4
Satisfação no Trabalho
100%
Fadiga
0%
Função Olheiro
Salário 42.0K p/s
Contrato 14.03.2029

Desempenho

Comportamento Bom
Eficácia do Treinamento
44%
Desenvolvimento do Jogador
25%
Prevenção de Lesões
45%
Implementação Tática
30%

Eventos Recentes

Participou de uma reunião de recrutamento agora
Recomendou um alvo de transferência agora
Recomendou um alvo de transferência agora
Recomendou um alvo de transferência 7d atrás
Recomendou um alvo de transferência 7d atrás
Recomendou um alvo de transferência 7d atrás
Avaliou um jogador 7d atrás
Avaliou um jogador 7d atrás

Monitorando agora

122
Jogador Clube Status Habilidade Confiança Observado Última observação Último voto
Ilyas Ansah Hull City Ativo 158 / 155 40% 1 28.07.2028 -
Pedro Mendes Modena Ativo 134 / 114 40% 1 28.07.2028 -
Trey Nyoni Rotherham United Ativo 148 / 163 40% 3 27.07.2028 -
Nicolò Moranduzzo Renate Ativo 78 / 87 40% 1 27.07.2028 -
Giovanni Leoni Lincoln City Ativo 147 / 161 40% 1 22.07.2028 -
Aune Heggebø West Bromwich Albion Ativo 129 / 128 40% 4 21.07.2028 -
Jay Stansfield Birmingham Ativo 138 / 135 40% 1 21.07.2028 -
Sayed Abu Farchi Maccabi Tel Aviv Ativo 136 / 137 40% 1 14.02.2028 -
Kerim Alajbegović Modena Ativo 131 / 137 40% 1 07.02.2028 -
Tedi Cara Omiya Ardija Ativo 106 / 108 40% 1 31.01.2028 -
Mao Hosoya Santos Ativo 134 / 135 67% 1 05.01.2028 Aprovar
Mark Isozaki Omiya Ardija Ativo 96 / 83 51% 1 05.01.2028 -
Miguel Pereira Persebaya Ativo 122 / 99 40% 1 03.01.2028 -
Hosea Michael Remo Stars Ativo 71 / 107 40% 2 27.12.2027 -
Josh Nichols Oldham Athletic Ativo 122 / 127 40% 2 27.12.2027 -
Azizbek To'lqinbekov Bunyodkor Ativo 99 / 97 40% 3 24.12.2027 -
Christos Mouzakitis Hull City Ativo 154 / 154 40% 2 22.12.2027 -
Melvin Vučenović Persson Atvidaberg Ativo 83 / 71 40% 3 21.12.2027 -
Edvard Pettersen Sandefjord Ativo 108 / 130 40% 7 21.12.2027 -
Lucas Camejo River Plate Ativo 90 / 95 40% 4 17.12.2027 -
Ivan Borges Defensores Ativo 73 / 91 40% 5 16.12.2027 -
Honest Ahanor Atalanta Ativo 125 / 150 40% 3 16.12.2027 -
Yury Oyarzo Racing Ativo 97 / 106 40% 1 15.12.2027 -
Matias Siltanen Malmo FF Ativo 119 / 130 40% 1 13.12.2027 -
Agustín Obregón River Plate Ativo 109 / 107 40% 2 09.12.2027 -
Olaniyi Saheed Kwara United Ativo 82 / 114 40% 3 08.12.2027 -
Francisco Machis Llaneros Ativo 75 / 96 40% 3 07.12.2027 -
Lucas Høgsberg RC Strasbourg Ativo 136 / 154 40% 2 06.12.2027 -
Felipe Faúndez O'Higgins Ativo 90 / 96 40% 5 04.12.2027 -
Nazareno Roselli Defensa y Justicia Ativo 102 / 131 40% 1 30.11.2027 -
Esquerdinha Notts County Ativo 117 / 142 40% 2 29.11.2027 -
Toheeb Adebayo Shooting Stars Ativo 86 / 62 40% 1 28.11.2027 -
David Damboama El-Kanemi Warriors Ativo 98 / 85 40% 4 25.11.2027 -
Lucas Nicol Mjondalen Ativo 76 / 69 40% 1 24.11.2027 -
Oscar Steinke Brånby Hammarby Ativo 83 / 99 40% 1 21.11.2027 -
Joelson Gamarra General Caballero Ativo 79 / 66 40% 1 19.11.2027 -
Nahuel Leivas Montevideo City Torque Ativo 99 / 97 40% 1 16.11.2027 -
Victor Hernandez Santa Fe Ativo 127 / 127 40% 5 14.11.2027 -
Diego Vargas Universidad de Concepcion Ativo 81 / 109 40% 2 13.11.2027 -
Gideon Manaseh Ikorodu City Ativo 78 / 93 40% 1 13.11.2027 -
Tyler Fletcher Rotherham United Ativo 97 / 111 40% 2 06.11.2027 -
Joel Ezra Enyimba Ativo 79 / 95 40% 4 05.11.2027 -
Juan Camilo Córdoba Deportivo Pereira Ativo 87 / 81 40% 1 04.11.2027 -
Tiago Gordillo San Miguel Ativo 82 / 100 40% 1 01.11.2027 -
Jon Esenga IF Elfsborg Ativo 95 / 98 40% 2 20.10.2027 -
Matías Canedo Rampla Juniors Ativo 76 / 93 40% 1 13.10.2027 -
Josh Acheampong Everton Ativo 150 / 161 40% 2 12.10.2027 -
Yerry Gonzalez Universitario Popayan Ativo 96 / 102 40% 2 06.10.2027 -
Daniel Idoko Ikorodu City Ativo 98 / 78 40% 1 13.09.2027 -
Ignacio Fernández Boston River Ativo 82 / 91 40% 1 12.09.2027 -
Issa Yusuf Shooting Stars Ativo 104 / 97 40% 2 10.09.2027 -
Onyeuche Ujunwa Ikorodu City Ativo 98 / 91 40% 1 09.09.2027 -
Adrian Skogmar Malmo FF Ativo 126 / 134 40% 1 06.09.2027 -
Riley Owen Stevenage Ativo 116 / 104 40% 4 24.07.2027 -
George Hoddle Cambridge United Ativo 104 / 97 40% 1 24.07.2027 -
Sampson Dweh Mallorca Ativo 133 / 134 66% 1 22.07.2027 Aprovar
Matěj Ryneš AS Nancy Ativo 122 / 123 67% 1 22.07.2027 Aprovar
Stephen Humphrys Bradford City Ativo 118 / 119 40% 2 20.07.2027 -
Tyrese Campbell Sheffield United Ativo 127 / 128 40% 5 19.07.2027 -
Kyle Wootton Stockport County Ativo 144 / 115 40% 2 17.07.2027 -
Carlton Morris Derby County Ativo 140 / 130 40% 1 17.07.2027 Mais informações
Malik Mothersille Stockport County Ativo 126 / 109 40% 4 15.07.2027 -
Harry Cornick AFC Wimbledon Ativo 117 / 112 40% 2 15.07.2027 -
Brandon Hanlan Doncaster Rovers Ativo 90 / 84 40% 1 12.07.2027 -
Josh Coburn Millwall Ativo 104 / 115 40% 2 10.07.2027 -
Maldini Kacurri Grimsby Town Ativo 92 / 112 40% 3 08.07.2027 -
Eliás Montiel Borussia Dortmund Ativo 148 / 137 40% 2 08.07.2027 -
Calum Kavanagh Oldham Athletic Ativo 108 / 100 40% 1 08.07.2027 -
Tiago Freitas Benfica Ativo 111 / 119 40% 2 06.07.2027 -
Martim Cunha Porto Ativo 90 / 114 40% 4 04.07.2027 -
Simón Pinto Huachipato Ativo 95 / 96 40% 1 04.07.2027 -
Kazunari Kita Real Sociedad Ativo 110 / 122 40% 3 03.07.2027 -
Edwin Asamoah Berekum Chelsea Ativo 69 / 67 40% 3 01.07.2027 -
Callum Lang Preston Ativo 125 / 116 40% 1 01.07.2027 -
Callum O'Hare Sheffield United Ativo 122 / 133 40% 3 30.06.2027 -
Giorgi Kvernadze Frosinone Ativo 108 / 136 40% 2 30.06.2027 -
Josh Windass Wrexham Ativo 112 / 106 40% 2 29.06.2027 -
Zane Albarus Shrewsbury Town Ativo 114 / 115 40% 3 28.06.2027 -
Charlie Gray Fleetwood Town Ativo 112 / 109 40% 1 25.06.2027 -
Bernardo Lima Porto Ativo 101 / 121 40% 2 24.06.2027 -
Moncef Zekri Sporting CP Ativo 90 / 110 40% 1 23.06.2027 -
Yousef Salech Cardiff City Ativo 131 / 128 40% 2 22.06.2027 -
Sam Bell Bristol City Ativo 127 / 119 40% 1 22.06.2027 -
Pedro Vian Seewald Dolomiti Bellunesi Ativo 81 / 110 40% 3 21.06.2027 -
Aidomo Emakhu Oxford United Ativo 108 / 123 40% 2 17.06.2027 -
Jaze Kabia Grimsby Town Ativo 77 / 86 40% 1 12.06.2027 -
Rhys Walters Port Vale Ativo 114 / 127 40% 1 11.06.2027 -
Miguel Figueiredo Benfica Ativo 106 / 110 40% 1 10.06.2027 -
Olalekan Adeleke Remo Stars Ativo 75 / 90 40% 1 09.06.2027 -
Andrea Bertoncini Triestina Ativo 94 / 79 40% 1 09.06.2027 -
Marezi Portsmouth Ativo 137 / 123 40% 3 05.06.2027 -
Andri Guðjohnsen Blackburn Rovers Ativo 104 / 123 40% 1 05.06.2027 -
Fábio Tavares Burton Albion Ativo 88 / 105 40% 1 04.06.2027 -
Ezra Mayers West Ham United Ativo 110 / 145 40% 4 27.05.2027 -
Sascha Britschgi AC Milan Ativo 117 / 149 40% 1 27.05.2027 -
Gonçalo Oliveira Benfica Ativo 123 / 98 40% 4 25.05.2027 -
Tyrese Shade Burton Albion Ativo 118 / 92 40% 1 19.05.2027 -
Joe Gelhardt Hull City Ativo 140 / 129 40% 2 17.05.2027 -
Elijah Adebayo Luton Town Ativo 120 / 108 40% 2 16.05.2027 -
Olivier Leroux Mouscron Ativo 92 / 94 40% 1 12.05.2027 -
Zian Flemming Ipswich Town Ativo 122 / 141 40% 1 01.05.2027 -
Aaron Drinan Swindon Town Ativo 106 / 113 40% 1 30.04.2027 -
Oli McBurnie Hull City Ativo 136 / 129 40% 1 30.04.2027 -
Afriyie Sulemana WAFA Ativo 102 / 101 40% 1 30.04.2027 -
Jenson Jones Walsall Ativo 102 / 99 40% 1 21.04.2027 -
Aaron Collins Milton Keynes Dons Ativo 107 / 109 40% 1 12.04.2027 -
Ahmed Zaki Masr El Makasa Ativo 72 / 69 40% 1 12.04.2027 -
Amine Boukamir Charleroi Ativo 104 / 108 40% 2 09.04.2027 -
Chico Banza Zamalek Ativo 125 / 96 40% 1 09.04.2027 -
Mees Rijks Bristol Rovers Ativo 109 / 93 40% 1 08.04.2027 -
Mohamed-Ali Cho Hull City Ativo 147 / 118 40% 1 06.04.2027 -
David Ozoh Derby County Ativo 110 / 107 40% 3 17.02.2027 -
Sam Greenwood Bristol City Ativo 140 / 140 40% 1 02.02.2027 -
Tariq Lamptey Queens Park Rangers Ativo 126 / 149 40% 1 04.01.2027 -
Jacques Ekomié Wrexham Ativo 132 / 116 40% 1 04.01.2027 -
Hjalte Bidstrup Viborg Ativo 85 / 136 40% 2 29.12.2026 -
Louis Leroux FC Nantes Ativo 118 / 143 40% 1 22.12.2026 -
Matteo Pérez Vinlöf Dinamo Zagreb Ativo 116 / 119 40% 1 09.12.2026 -
Maxim Radchenko Rostov Ativo 102 / 80 40% 1 08.12.2026 -
James Dornelly Peterborough United Ativo 86 / 119 40% 1 07.12.2026 -
Mohamed Cherif Haïdara Randers Ativo 121 / 129 40% 1 24.11.2026 -
Sergi Domínguez Dinamo Zagreb Ativo 112 / 132 40% 1 23.11.2026 -